createdAt,value
2023-04-16T00:00:42.908Z,1.92
2023-04-16T00:05:35.941Z,1.45
2023-04-16T00:08:02.544Z,1.90
2023-04-16T00:10:29.086Z,1.50
2023-04-16T00:12:55.488Z,1.40
2023-04-16T00:15:22.066Z,1.23
2023-04-16T00:17:48.516Z,1.58
2023-04-16T00:20:15.404Z,1.67
2023-04-16T00:22:41.804Z,1.95
2023-04-16T00:25:08.589Z,2.03
2023-04-16T00:27:35.042Z,1.77
2023-04-16T00:30:01.615Z,2.03
2023-04-16T00:32:28.105Z,1.48
2023-04-16T00:34:54.735Z,1.80
2023-04-16T00:37:21.180Z,1.65
2023-04-16T00:39:47.662Z,2.17
2023-04-16T00:42:14.975Z,1.92
2023-04-16T00:44:41.399Z,1.35
2023-04-16T00:47:08.745Z,2.30
2023-04-16T00:49:36.211Z,2.15
2023-04-16T00:52:03.379Z,1.83
2023-04-16T00:54:31.561Z,1.73
2023-04-16T00:56:59.645Z,2.22
2023-04-16T00:59:26.964Z,1.80
2023-04-16T01:01:53.591Z,2.35
2023-04-16T01:04:20.692Z,2.10
2023-04-16T01:06:47.165Z,2.03
2023-04-16T01:09:14.187Z,3.10
2023-04-16T01:11:40.751Z,2.30
2023-04-16T01:14:07.341Z,2.70
2023-04-16T01:16:33.850Z,2.33
2023-04-16T01:19:00.392Z,2.53
2023-04-16T01:21:27.444Z,2.55
2023-04-16T01:23:53.961Z,3.15
2023-04-16T01:26:20.407Z,3.40
2023-04-16T01:28:46.903Z,2.65
2023-04-16T01:31:13.414Z,3.03
2023-04-16T01:34:02.527Z,2.55
2023-04-16T01:36:28.960Z,2.95
2023-04-16T01:38:55.588Z,3.00
2023-04-16T01:41:23.479Z,2.50
2023-04-16T01:43:50.006Z,2.53
2023-04-16T01:46:27.176Z,2.88
2023-04-16T01:48:54.799Z,2.95
2023-04-16T01:51:21.790Z,3.50
2023-04-16T01:53:52.032Z,2.88
2023-04-16T01:56:18.514Z,3.22
2023-04-16T01:58:46.075Z,3.40
2023-04-16T02:01:13.973Z,3.60
2023-04-16T02:03:40.720Z,3.30
2023-04-16T02:06:07.443Z,3.10
2023-04-16T02:08:35.544Z,3.55
2023-04-16T02:11:02.102Z,4.25
2023-04-16T02:13:28.968Z,3.97
2023-04-16T02:15:55.439Z,4.15
2023-04-16T02:18:57.300Z,4.05
2023-04-16T02:21:24.843Z,4.10
2023-04-16T02:23:51.819Z,3.85
2023-04-16T02:26:22.751Z,4.15
2023-04-16T02:28:50.996Z,3.85
2023-04-16T02:31:19.745Z,3.75
2023-04-16T02:33:47.785Z,4.03
2023-04-16T02:36:14.718Z,3.83
2023-04-16T02:38:41.177Z,4.63
2023-04-16T02:41:08.179Z,4.03
2023-04-16T02:43:34.792Z,4.28
2023-04-16T02:46:01.863Z,4.20
2023-04-16T02:48:28.453Z,4.45
2023-04-16T02:50:54.933Z,3.95
2023-04-16T02:53:21.655Z,4.20
2023-04-16T02:55:54.978Z,4.32
2023-04-16T02:58:23.928Z,4.80
2023-04-16T03:00:51.265Z,4.57
2023-04-16T03:03:17.943Z,4.53
2023-04-16T03:05:45.458Z,5.10
2023-04-16T03:08:11.923Z,4.93
2023-04-16T03:10:38.462Z,5.35
2023-04-16T03:13:05.081Z,4.63
2023-04-16T03:15:31.595Z,4.47
2023-04-16T03:17:59.108Z,5.40
2023-04-16T03:20:25.877Z,5.15
2023-04-16T03:22:53.047Z,5.53
2023-04-16T03:25:19.675Z,5.45
2023-04-16T03:27:46.189Z,5.20
2023-04-16T03:30:14.633Z,5.13
2023-04-16T03:32:41.605Z,5.25
2023-04-16T03:35:09.559Z,5.38
2023-04-16T03:37:36.845Z,5.35
2023-04-16T03:40:05.791Z,4.47
2023-04-16T03:42:32.540Z,5.78
2023-04-16T03:44:59.358Z,5.82
2023-04-16T03:47:26.138Z,5.00
2023-04-16T03:49:56.055Z,4.78
2023-04-16T03:52:22.585Z,5.13
2023-04-16T03:54:49.049Z,4.90
2023-04-16T03:57:24.140Z,4.47
2023-04-16T03:59:51.378Z,6.28
2023-04-16T04:02:18.435Z,6.65
2023-04-16T04:04:45.348Z,6.28
2023-04-16T04:07:11.889Z,5.75
2023-04-16T04:09:38.752Z,6.28
2023-04-16T04:12:05.310Z,5.57
2023-04-16T04:14:33.066Z,5.75
2023-04-16T04:16:59.597Z,5.32
2023-04-16T04:19:26.031Z,5.35
2023-04-16T04:21:52.460Z,5.22
2023-04-16T04:24:18.906Z,6.13
2023-04-16T04:26:45.484Z,5.80
2023-04-16T04:29:12.365Z,5.93
2023-04-16T04:31:38.997Z,5.20
2023-04-16T04:34:05.468Z,4.75
2023-04-16T04:36:32.234Z,5.38
2023-04-16T04:39:00.110Z,5.50
2023-04-16T04:41:27.255Z,4.70
2023-04-16T04:43:53.892Z,5.05
2023-04-16T04:46:20.847Z,6.53
2023-04-16T04:48:47.382Z,5.47
2023-04-16T04:51:16.193Z,5.57
2023-04-16T04:53:45.236Z,4.90
2023-04-16T04:56:13.054Z,5.50
2023-04-16T04:58:41.397Z,5.50
2023-04-16T05:01:07.997Z,4.97
2023-04-16T05:03:34.617Z,5.25
2023-04-16T05:06:01.212Z,5.20
2023-04-16T05:08:29.901Z,5.35
2023-04-16T05:10:56.302Z,5.50
2023-04-16T05:13:22.928Z,5.25
2023-04-16T05:15:49.474Z,5.78
2023-04-16T05:18:16.297Z,5.63
2023-04-16T05:20:42.696Z,5.43
2023-04-16T05:23:09.161Z,5.47
2023-04-16T05:25:35.725Z,5.47
2023-04-16T05:28:02.139Z,6.18
2023-04-16T05:30:28.551Z,5.90
2023-04-16T05:32:54.973Z,5.65
2023-04-16T05:35:22.264Z,6.00
2023-04-16T05:37:48.708Z,5.63
2023-04-16T05:40:15.397Z,5.90
2023-04-16T05:42:41.938Z,5.43
2023-04-16T05:45:08.953Z,5.90
2023-04-16T05:47:35.473Z,5.57
2023-04-16T05:50:01.989Z,5.45
2023-04-16T05:52:28.502Z,5.95
2023-04-16T05:54:55.089Z,5.72
2023-04-16T05:57:21.578Z,5.82
2023-04-16T05:59:48.145Z,5.95
2023-04-16T06:02:14.994Z,5.47
2023-04-16T06:04:41.483Z,5.63
2023-04-16T06:07:07.985Z,5.72
2023-04-16T06:09:34.397Z,7.18
2023-04-16T06:12:01.312Z,5.25
2023-04-16T06:14:27.796Z,5.65
2023-04-16T06:16:54.239Z,5.47
2023-04-16T06:19:20.898Z,6.20
2023-04-16T06:21:47.409Z,6.30
2023-04-16T06:24:14.037Z,5.85
2023-04-16T06:26:40.485Z,6.05
2023-04-16T06:29:06.893Z,6.00
2023-04-16T06:31:33.384Z,5.55
2023-04-16T06:33:59.829Z,5.68
2023-04-16T06:36:27.563Z,6.68
2023-04-16T06:38:53.955Z,5.75
2023-04-16T06:41:22.700Z,7.18
2023-04-16T06:43:49.468Z,6.75
2023-04-16T06:46:15.926Z,6.70
2023-04-16T06:48:42.577Z,6.97
2023-04-16T06:51:09.149Z,6.18
2023-04-16T06:53:37.477Z,6.38
2023-04-16T06:56:04.276Z,6.40
2023-04-16T06:58:30.780Z,7.25
2023-04-16T07:00:57.363Z,6.50
2023-04-16T07:03:23.994Z,6.65
2023-04-16T07:05:50.597Z,7.18
2023-04-16T07:08:17.058Z,6.85
2023-04-16T07:10:43.685Z,6.82
2023-04-16T07:13:10.382Z,7.13
2023-04-16T07:15:36.869Z,7.57
2023-04-16T07:18:03.374Z,8.02
2023-04-16T07:20:29.980Z,7.50
2023-04-16T07:22:56.624Z,7.88
2023-04-16T07:25:23.112Z,7.78
2023-04-16T07:27:49.668Z,7.45
2023-04-16T07:30:16.240Z,8.43
2023-04-16T07:32:42.952Z,7.28
2023-04-16T07:35:09.619Z,7.25
2023-04-16T07:37:36.081Z,7.63
2023-04-16T07:40:02.567Z,7.45
2023-04-16T07:42:29.123Z,6.93
2023-04-16T07:44:55.592Z,5.32
2023-04-16T07:47:23.249Z,6.70
2023-04-16T07:49:50.581Z,6.82
2023-04-16T07:52:16.990Z,6.53
2023-04-16T07:54:43.536Z,6.68
2023-04-16T07:57:11.473Z,6.90
2023-04-16T07:59:38.058Z,6.13
2023-04-16T08:02:04.910Z,5.85
2023-04-16T08:04:31.729Z,6.07
2023-04-16T08:06:58.333Z,5.75
2023-04-16T08:09:28.307Z,5.65
2023-04-16T08:11:54.855Z,5.65
2023-04-16T08:14:21.332Z,5.80
2023-04-16T08:16:47.802Z,5.72
2023-04-16T08:19:14.265Z,5.32
2023-04-16T08:21:41.075Z,4.88
2023-04-16T08:24:07.969Z,4.55
2023-04-16T08:26:34.643Z,5.13
2023-04-16T08:29:01.180Z,4.80
2023-04-16T08:31:27.757Z,4.38
2023-04-16T08:33:54.206Z,4.85
2023-04-16T08:36:20.836Z,4.53
2023-04-16T08:38:47.364Z,3.75
2023-04-16T08:41:14.949Z,3.78
2023-04-16T08:43:45.590Z,3.88
2023-04-16T08:46:13.079Z,4.90
2023-04-16T08:48:42.026Z,3.67
2023-04-16T08:53:48.387Z,3.45
2023-04-16T08:56:18.028Z,3.13
2023-04-16T08:58:47.491Z,3.50
2023-04-16T09:01:14.820Z,3.80
2023-04-16T09:03:41.726Z,3.75
2023-04-16T09:06:09.918Z,4.10
2023-04-16T09:08:38.046Z,3.33
2023-04-16T09:11:04.617Z,3.80
2023-04-16T09:13:34.167Z,3.92
2023-04-16T09:16:00.999Z,4.30
2023-04-16T09:18:28.417Z,4.03
2023-04-16T09:20:56.252Z,4.00
2023-04-16T09:23:23.373Z,3.45
2023-04-16T09:25:49.773Z,3.60
2023-04-16T09:28:41.775Z,3.65
2023-04-16T09:31:13.361Z,3.45
2023-04-16T09:33:40.493Z,3.63
2023-04-16T09:36:07.628Z,3.92
2023-04-16T09:38:48.034Z,3.75
2023-04-16T09:41:18.071Z,3.85
2023-04-16T09:44:02.007Z,4.00
2023-04-16T09:46:34.950Z,3.80
2023-04-16T09:49:15.518Z,3.45
2023-04-16T09:51:43.551Z,4.30
2023-04-16T09:54:10.113Z,4.30
2023-04-16T09:56:44.959Z,4.13
2023-04-16T10:01:46.962Z,4.32
2023-04-16T10:06:39.854Z,3.83
2023-04-16T10:09:09.687Z,4.25
2023-04-16T10:11:37.755Z,4.60
2023-04-16T10:14:04.207Z,4.28
2023-04-16T10:16:31.053Z,4.53
2023-04-16T10:18:58.749Z,4.75
2023-04-16T10:21:26.370Z,5.95
2023-04-16T10:23:52.937Z,5.72
2023-04-16T10:26:21.318Z,5.85
2023-04-16T10:28:47.989Z,5.85
2023-04-16T10:31:14.847Z,6.28
2023-04-16T10:33:42.633Z,6.18
2023-04-16T10:36:09.601Z,6.22
2023-04-16T10:38:39.725Z,5.65
2023-04-16T10:41:07.066Z,6.18
2023-04-16T10:43:42.437Z,5.85
2023-04-16T10:46:33.367Z,5.97
2023-04-16T10:49:16.232Z,6.07
2023-04-16T10:51:42.794Z,5.72
2023-04-16T10:54:09.279Z,6.35
2023-04-16T10:56:37.152Z,5.93
2023-04-16T10:59:11.418Z,6.13
2023-04-16T11:01:46.188Z,6.45
2023-04-16T11:04:22.074Z,6.03
2023-04-16T11:07:03.059Z,5.93
2023-04-16T11:10:02.092Z,6.55
2023-04-16T11:12:35.529Z,6.10
2023-04-16T11:15:05.976Z,5.53
2023-04-16T11:17:43.616Z,6.00
2023-04-16T11:20:20.246Z,5.70
2023-04-16T11:22:57.713Z,5.80
2023-04-16T11:25:26.289Z,5.93
2023-04-16T11:27:53.207Z,5.55
2023-04-16T11:30:31.963Z,6.38
2023-04-16T11:32:58.600Z,6.30
2023-04-16T11:35:27.438Z,6.55
2023-04-16T11:40:25.244Z,6.05
2023-04-16T11:42:51.870Z,6.68
2023-04-16T11:45:19.445Z,6.78
2023-04-16T11:47:55.148Z,6.40
2023-04-16T11:50:24.206Z,6.53
2023-04-16T11:55:18.906Z,6.15
2023-04-16T11:57:46.005Z,6.30
2023-04-16T12:00:14.238Z,6.22
2023-04-16T12:02:51.642Z,6.18
2023-04-16T12:05:28.792Z,7.88
2023-04-16T12:07:55.845Z,6.95
2023-04-16T12:10:22.764Z,7.32
2023-04-16T12:12:49.572Z,6.53
2023-04-16T12:15:16.144Z,6.53
2023-04-16T12:17:42.602Z,6.38
2023-04-16T12:20:10.054Z,5.95
2023-04-16T12:22:38.400Z,5.50
2023-04-16T12:25:13.586Z,6.00
2023-04-16T12:27:55.584Z,6.60
2023-04-16T12:30:23.791Z,5.90
2023-04-16T12:32:52.489Z,5.70
2023-04-16T12:37:59.047Z,4.78
2023-04-16T12:40:25.979Z,5.30
2023-04-16T12:42:52.452Z,5.03
2023-04-16T12:45:19.123Z,5.70
2023-04-16T12:47:46.513Z,5.55
2023-04-16T12:50:12.998Z,5.55
2023-04-16T12:52:39.530Z,5.30
2023-04-16T12:55:06.653Z,5.18
2023-04-16T12:57:33.130Z,5.00
2023-04-16T12:59:59.601Z,5.47
2023-04-16T13:02:26.189Z,5.75
2023-04-16T13:04:53.857Z,5.35
2023-04-16T13:07:21.230Z,6.03
2023-04-16T13:09:47.782Z,5.72
2023-04-16T13:12:14.264Z,6.40
2023-04-16T13:14:42.399Z,6.07
2023-04-16T13:17:09.916Z,6.57
2023-04-16T13:19:36.512Z,7.22
2023-04-16T13:22:03.183Z,6.45
2023-04-16T13:24:30.526Z,7.10
2023-04-16T13:26:56.931Z,6.82
2023-04-16T13:29:23.336Z,7.65
2023-04-16T13:31:50.003Z,7.22
2023-04-16T13:34:16.573Z,6.75
2023-04-16T13:36:43.283Z,6.97
2023-04-16T13:39:12.737Z,6.15
2023-04-16T13:41:39.567Z,6.60
2023-04-16T13:44:06.348Z,6.10
2023-04-16T13:46:33.427Z,6.13
2023-04-16T13:49:00.058Z,6.55
2023-04-16T13:51:27.669Z,6.03
2023-04-16T13:53:54.818Z,5.68
2023-04-16T13:56:21.394Z,5.80
2023-04-16T13:58:48.393Z,5.72
2023-04-16T14:01:15.038Z,5.60
2023-04-16T14:03:42.049Z,4.85
2023-04-16T14:06:08.622Z,5.57
2023-04-16T14:08:35.074Z,5.80
2023-04-16T14:11:02.127Z,5.53
2023-04-16T14:13:28.674Z,5.30
2023-04-16T14:15:55.776Z,5.30
2023-04-16T14:18:22.289Z,5.22
2023-04-16T14:20:48.722Z,4.82
2023-04-16T14:23:15.278Z,5.93
2023-04-16T14:25:41.764Z,5.35
2023-04-16T14:28:09.226Z,5.20
2023-04-16T14:30:35.678Z,5.50
2023-04-16T14:33:04.401Z,5.13
2023-04-16T14:40:24.820Z,5.18
2023-04-16T14:42:51.366Z,5.25
2023-04-16T14:45:17.769Z,5.88
2023-04-16T14:47:47.683Z,6.00
2023-04-16T14:50:15.666Z,5.90
2023-04-16T14:52:42.215Z,5.75
2023-04-16T14:55:08.743Z,5.40
2023-04-16T14:57:35.330Z,5.80
2023-04-16T15:00:02.130Z,5.90
2023-04-16T15:02:29.226Z,5.60
2023-04-16T15:04:55.948Z,5.78
2023-04-16T15:07:22.526Z,6.25
2023-04-16T15:09:49.109Z,6.38
2023-04-16T15:12:17.941Z,6.75
2023-04-16T15:14:45.580Z,5.68
2023-04-16T15:17:12.162Z,5.82
2023-04-16T15:19:38.657Z,5.60
2023-04-16T15:22:05.083Z,5.78
2023-04-16T15:24:31.613Z,6.00
2023-04-16T15:26:58.228Z,6.40
2023-04-16T15:29:24.810Z,5.80
2023-04-16T15:31:51.216Z,6.03
2023-04-16T15:34:17.643Z,6.40
2023-04-16T15:36:44.067Z,6.07
2023-04-16T15:39:10.902Z,6.40
2023-04-16T15:41:50.224Z,6.15
2023-04-16T15:44:24.185Z,6.47
2023-04-16T15:46:50.851Z,6.45
2023-04-16T15:49:17.472Z,6.85
2023-04-16T15:51:43.965Z,7.15
2023-04-16T15:54:10.403Z,7.03
2023-04-16T15:56:37.081Z,6.95
2023-04-16T15:59:03.821Z,6.43
2023-04-16T16:01:31.104Z,6.95
2023-04-16T16:04:07.428Z,6.95
2023-04-16T16:11:27.617Z,5.88
2023-04-16T16:13:54.164Z,6.80
2023-04-16T16:16:21.666Z,6.75
2023-04-16T16:18:48.183Z,6.75
2023-04-16T16:21:14.642Z,7.57
2023-04-16T16:23:41.255Z,7.13
2023-04-16T16:26:07.745Z,6.93
2023-04-16T16:28:37.519Z,7.18
2023-04-16T16:31:05.927Z,7.43
2023-04-16T16:33:33.094Z,7.22
2023-04-16T16:35:59.690Z,6.40
2023-04-16T16:38:26.187Z,7.47
2023-04-16T16:40:52.721Z,7.40
2023-04-16T16:43:19.449Z,7.88
2023-04-16T16:45:46.392Z,7.47
2023-04-16T16:48:12.881Z,8.27
2023-04-16T16:50:41.774Z,7.80
2023-04-16T16:58:02.174Z,7.00
2023-04-16T17:00:28.753Z,7.07
2023-04-16T17:02:55.418Z,7.20
2023-04-16T17:05:22.160Z,7.82
2023-04-16T17:07:48.663Z,8.18
2023-04-16T17:10:21.683Z,7.45
2023-04-16T17:12:49.259Z,8.27
2023-04-16T17:15:17.189Z,8.02
2023-04-16T17:17:44.522Z,7.35
2023-04-16T17:20:12.160Z,7.88
2023-04-16T17:22:39.717Z,7.30
2023-04-16T17:25:07.635Z,7.78
2023-04-16T17:27:34.349Z,8.25
2023-04-16T17:30:01.773Z,7.82
2023-04-16T17:32:29.556Z,8.30
2023-04-16T17:34:56.532Z,8.45
2023-04-16T17:37:23.650Z,7.72
2023-04-16T17:39:51.018Z,7.72
2023-04-16T17:42:17.616Z,7.72
2023-04-16T17:44:44.207Z,7.38
2023-04-16T17:47:10.810Z,8.57
2023-04-16T17:49:37.302Z,7.75
2023-04-16T17:52:03.973Z,7.30
2023-04-16T17:54:30.470Z,7.57
2023-04-16T17:56:57.620Z,6.97
2023-04-16T17:59:24.099Z,8.07
2023-04-16T18:01:50.789Z,7.72
2023-04-16T18:04:17.839Z,8.27
2023-04-16T18:06:44.761Z,7.78
2023-04-16T18:09:12.083Z,8.25
2023-04-16T18:11:38.586Z,8.82
2023-04-16T18:14:05.176Z,8.35
2023-04-16T18:16:32.182Z,7.43
2023-04-16T18:18:59.049Z,8.20
2023-04-16T18:21:25.900Z,8.00
2023-04-16T18:23:52.318Z,8.73
2023-04-16T18:26:21.122Z,9.18
2023-04-16T18:28:49.266Z,8.73
2023-04-16T18:31:15.955Z,8.90
2023-04-16T18:33:53.380Z,9.02
2023-04-16T18:36:21.871Z,8.95
2023-04-16T18:39:00.162Z,9.65
2023-04-16T18:41:28.672Z,9.00
2023-04-16T18:43:55.324Z,9.57
2023-04-16T18:46:21.903Z,9.85
2023-04-16T18:48:48.427Z,10.20
2023-04-16T18:51:16.253Z,9.65
2023-04-16T18:53:44.264Z,9.57
2023-04-16T18:56:11.601Z,9.82
2023-04-16T18:58:38.165Z,9.60
2023-04-16T19:01:06.088Z,9.98
2023-04-16T19:03:33.234Z,9.55
2023-04-16T19:06:00.087Z,11.55
2023-04-16T19:08:27.105Z,10.70
2023-04-16T19:10:53.528Z,10.27
2023-04-16T19:13:20.049Z,10.18
2023-04-16T19:15:46.637Z,10.25
2023-04-16T19:18:13.164Z,9.88
2023-04-16T19:20:39.737Z,10.00
2023-04-16T19:23:08.805Z,10.07
2023-04-16T19:25:36.516Z,9.73
2023-04-16T19:28:03.730Z,9.30
2023-04-16T19:30:30.808Z,10.35
2023-04-16T19:32:57.850Z,9.45
2023-04-16T19:35:24.477Z,9.02
2023-04-16T19:37:51.393Z,9.88
2023-04-16T19:40:18.029Z,10.13
2023-04-16T19:42:45.414Z,9.95
2023-04-16T19:45:11.975Z,9.05
2023-04-16T19:47:38.719Z,9.13
2023-04-16T19:50:05.854Z,10.52
2023-04-16T19:52:37.295Z,9.52
2023-04-16T19:55:04.754Z,8.77
2023-04-16T19:57:31.170Z,10.25
2023-04-16T19:59:57.618Z,9.73
2023-04-16T20:02:24.240Z,10.00
2023-04-16T20:04:52.842Z,9.80
2023-04-16T20:07:20.063Z,10.00
2023-04-16T20:09:46.518Z,9.68
2023-04-16T20:12:12.976Z,9.95
2023-04-16T20:14:39.461Z,9.90
2023-04-16T20:17:09.808Z,10.77
2023-04-16T20:19:38.378Z,9.98
2023-04-16T20:22:05.050Z,9.57
2023-04-16T20:24:31.603Z,9.23
2023-04-16T20:26:58.073Z,10.07
2023-04-16T20:29:24.504Z,11.18
2023-04-16T20:31:50.993Z,10.70
2023-04-16T20:34:17.831Z,11.02
2023-04-16T20:36:44.382Z,11.05
2023-04-16T20:39:11.630Z,9.93
2023-04-16T20:41:43.606Z,10.73
2023-04-16T20:44:10.333Z,10.80
2023-04-16T20:46:39.692Z,11.20
2023-04-16T20:49:07.472Z,11.95
2023-04-16T20:51:33.941Z,11.27
2023-04-16T20:54:01.067Z,10.07
2023-04-16T20:56:27.516Z,11.48
2023-04-16T20:58:53.967Z,12.23
2023-04-16T21:01:20.739Z,11.05
2023-04-16T21:03:47.424Z,11.73
2023-04-16T21:06:17.909Z,11.43
2023-04-16T21:08:44.445Z,10.60
2023-04-16T21:11:10.892Z,10.43
2023-04-16T21:13:37.309Z,12.38
2023-04-16T21:16:04.826Z,11.15
2023-04-16T21:18:31.356Z,11.65
2023-04-16T21:20:58.864Z,11.45
2023-04-16T21:23:25.707Z,11.43
2023-04-16T21:25:52.163Z,11.07
2023-04-16T21:28:18.698Z,10.23
2023-04-16T21:30:45.135Z,10.63
2023-04-16T21:33:12.964Z,9.90
2023-04-16T21:35:39.448Z,9.77
2023-04-16T21:38:05.890Z,10.88
2023-04-16T21:40:32.359Z,9.85
2023-04-16T21:42:58.840Z,10.25
2023-04-16T21:45:25.461Z,10.50
2023-04-16T21:47:52.010Z,11.02
2023-04-16T21:50:18.541Z,10.35
2023-04-16T21:52:46.170Z,10.23
2023-04-16T21:55:14.232Z,9.35
2023-04-16T21:57:41.732Z,9.73
2023-04-16T22:00:13.832Z,11.10
2023-04-16T22:02:42.172Z,10.18
2023-04-16T22:05:09.204Z,10.88
2023-04-16T22:07:36.718Z,10.75
2023-04-16T22:10:04.433Z,11.60
2023-04-16T22:12:31.277Z,11.73
2023-04-16T22:15:02.784Z,11.70
2023-04-16T22:17:30.085Z,11.38
2023-04-16T22:19:57.266Z,12.55
2023-04-16T22:22:23.755Z,10.60
2023-04-16T22:24:50.322Z,11.02
2023-04-16T22:27:16.909Z,11.60
2023-04-16T22:29:43.444Z,11.45
2023-04-16T22:32:09.922Z,11.18
2023-04-16T22:34:38.652Z,11.50
2023-04-16T22:37:05.906Z,11.25
2023-04-16T22:39:32.345Z,11.45
2023-04-16T22:41:58.880Z,10.93
2023-04-16T22:44:25.508Z,12.52
2023-04-16T22:46:52.096Z,11.30
2023-04-16T22:49:18.548Z,12.13
2023-04-16T22:51:45.103Z,11.48
2023-04-16T22:54:13.633Z,11.68
2023-04-16T22:56:40.740Z,12.35
2023-04-16T22:59:07.394Z,12.52
2023-04-16T23:01:34.949Z,11.93
2023-04-16T23:04:01.499Z,12.20
2023-04-16T23:06:27.958Z,12.30
2023-04-16T23:08:54.397Z,12.38
2023-04-16T23:11:20.841Z,13.05
2023-04-16T23:13:47.277Z,12.32
2023-04-16T23:16:13.836Z,12.57
2023-04-16T23:18:40.351Z,10.73
2023-04-16T23:21:06.838Z,11.10
2023-04-16T23:23:33.416Z,12.07
2023-04-16T23:26:02.601Z,12.63
2023-04-16T23:28:29.117Z,11.60
2023-04-16T23:30:55.592Z,12.55
2023-04-16T23:33:22.089Z,14.00
2023-04-16T23:35:48.500Z,13.90
2023-04-16T23:38:17.104Z,13.73
2023-04-16T23:40:43.561Z,14.15
2023-04-16T23:43:10.592Z,13.45
2023-04-16T23:45:37.567Z,12.60
2023-04-16T23:48:04.099Z,12.45
2023-04-16T23:50:30.700Z,12.35
2023-04-16T23:52:57.142Z,12.32
2023-04-16T23:55:23.814Z,12.77
2023-04-16T23:57:50.306Z,12.68
